createdAt,value
2018-12-20T00:00:55.729Z,16.37
2018-12-20T00:05:57.714Z,15.30
2018-12-20T00:10:59.696Z,18.30
2018-12-20T00:21:30.208Z,13.90
2018-12-20T00:26:32.686Z,17.27
2018-12-20T00:31:35.892Z,16.20
2018-12-20T00:36:37.894Z,15.17
2018-12-20T00:41:51.182Z,17.70
2018-12-20T00:46:53.219Z,17.73
2018-12-20T00:51:58.735Z,16.13
2018-12-20T00:57:01.194Z,15.30
2018-12-20T01:02:03.981Z,15.47
2018-12-20T01:07:05.746Z,14.90
2018-12-20T01:12:08.451Z,15.67
2018-12-20T01:17:10.449Z,17.07
2018-12-20T01:22:12.178Z,15.37
2018-12-20T01:27:14.204Z,15.30
2018-12-20T01:32:16.310Z,14.67
2018-12-20T01:37:18.371Z,15.07
2018-12-20T01:42:20.066Z,15.53
2018-12-20T01:47:22.358Z,16.17
2018-12-20T01:52:39.196Z,14.97
2018-12-20T01:57:41.282Z,14.67
2018-12-20T02:02:43.562Z,14.37
2018-12-20T02:07:45.627Z,16.73
2018-12-20T02:12:47.928Z,12.50
2018-12-20T02:17:49.851Z,14.47
2018-12-20T02:22:51.797Z,14.20
2018-12-20T02:27:53.992Z,14.87
2018-12-20T02:32:56.172Z,16.17
2018-12-20T02:37:58.134Z,16.17
2018-12-20T02:43:00.206Z,16.50
2018-12-20T02:48:02.015Z,14.07
2018-12-20T02:53:04.191Z,13.37
2018-12-20T02:58:05.898Z,16.80
2018-12-20T03:03:08.015Z,15.73
2018-12-20T03:08:09.828Z,12.00
2018-12-20T03:13:12.313Z,16.97
2018-12-20T03:18:14.608Z,15.97
2018-12-20T03:23:16.490Z,18.70
2018-12-20T03:28:18.367Z,19.27
2018-12-20T03:33:20.236Z,11.00
2018-12-20T03:38:22.663Z,15.67
2018-12-20T03:43:25.606Z,14.80
2018-12-20T03:48:27.723Z,16.77
2018-12-20T03:53:29.433Z,15.30
2018-12-20T03:58:31.369Z,16.10
2018-12-20T04:03:33.790Z,15.17
2018-12-20T04:08:35.682Z,17.27
2018-12-20T04:13:38.068Z,17.00
2018-12-20T04:18:40.221Z,18.20
2018-12-20T04:23:42.329Z,16.57
2018-12-20T04:28:44.638Z,15.03
2018-12-20T04:33:46.477Z,13.83
2018-12-20T04:38:48.357Z,17.30
2018-12-20T04:43:50.642Z,14.97
2018-12-20T04:48:52.533Z,14.40
2018-12-20T04:53:54.600Z,16.03
2018-12-20T04:58:56.688Z,15.17
2018-12-20T05:03:59.022Z,14.40
2018-12-20T05:09:00.859Z,15.43
2018-12-20T05:14:10.941Z,20.13
2018-12-20T05:19:13.779Z,25.47
2018-12-20T05:24:15.973Z,13.27
2018-12-20T05:29:17.809Z,16.03
2018-12-20T05:34:19.610Z,17.40
2018-12-20T05:39:21.922Z,15.60
2018-12-20T05:44:24.147Z,12.37
2018-12-20T05:49:26.325Z,14.60
2018-12-20T05:54:28.164Z,14.77
2018-12-20T05:59:30.182Z,18.77
2018-12-20T06:04:32.641Z,14.77
2018-12-20T06:09:34.640Z,15.07
2018-12-20T06:14:37.458Z,16.00
2018-12-20T06:19:39.442Z,16.40
2018-12-20T06:24:41.118Z,14.90
2018-12-20T06:29:43.195Z,17.17
2018-12-20T06:34:44.875Z,21.83
2018-12-20T06:39:46.541Z,16.90
2018-12-20T06:44:48.218Z,15.20
2018-12-20T06:49:50.095Z,13.17
2018-12-20T06:54:52.374Z,16.17
2018-12-20T06:59:54.270Z,16.50
2018-12-20T07:04:56.232Z,14.33
2018-12-20T07:09:58.020Z,14.20
2018-12-20T07:14:59.732Z,16.57
2018-12-20T07:20:01.574Z,14.70
2018-12-20T07:25:04.463Z,19.07
2018-12-20T07:30:09.222Z,17.33
2018-12-20T07:35:11.306Z,15.93
2018-12-20T07:40:15.508Z,20.17
2018-12-20T07:45:17.507Z,20.13
2018-12-20T07:50:19.192Z,18.03
2018-12-20T07:55:20.867Z,18.33
2018-12-20T08:00:22.950Z,19.17
2018-12-20T08:05:31.650Z,18.60
2018-12-20T08:10:42.079Z,16.53
2018-12-20T08:15:44.663Z,19.10
2018-12-20T08:20:46.336Z,18.67
2018-12-20T08:25:48.122Z,19.43
2018-12-20T08:30:50.010Z,19.50
2018-12-20T08:35:52.396Z,18.33
2018-12-20T08:40:54.176Z,17.70
2018-12-20T08:46:03.630Z,19.10
2018-12-20T08:51:11.089Z,18.70
2018-12-20T08:56:13.030Z,27.70
2018-12-20T09:01:14.807Z,22.20
2018-12-20T09:06:16.582Z,18.47
2018-12-20T09:11:18.771Z,20.23
2018-12-20T09:16:20.696Z,20.93
2018-12-20T09:21:22.419Z,20.63
2018-12-20T09:26:24.387Z,24.77
2018-12-20T09:31:26.280Z,19.87
2018-12-20T09:36:28.334Z,11.67
2018-12-20T09:41:30.045Z,23.00
2018-12-20T09:46:31.724Z,21.10
2018-12-20T09:51:33.399Z,22.90
2018-12-20T09:56:35.280Z,20.00
2018-12-20T10:01:37.155Z,20.20
2018-12-20T10:06:43.949Z,20.17
2018-12-20T10:11:45.608Z,19.67
2018-12-20T10:16:47.700Z,29.77
2018-12-20T10:21:49.379Z,19.80
2018-12-20T10:26:51.267Z,23.10
2018-12-20T10:31:53.133Z,22.73
2018-12-20T10:36:54.774Z,25.37
2018-12-20T10:41:56.646Z,26.60
2018-12-20T10:47:00.822Z,21.27
2018-12-20T10:52:02.704Z,16.30
2018-12-20T10:57:04.377Z,22.53
2018-12-20T11:02:12.431Z,22.00
2018-12-20T11:07:20.622Z,18.77
2018-12-20T11:12:27.208Z,20.37
2018-12-20T11:17:37.130Z,23.97
2018-12-20T11:22:33.823Z,19.60
2018-12-20T11:27:35.501Z,18.80
2018-12-20T11:32:37.786Z,21.20
2018-12-20T11:37:39.468Z,20.70
2018-12-20T11:42:41.332Z,21.43
2018-12-20T11:47:46.114Z,19.93
2018-12-20T11:52:47.982Z,26.00
2018-12-20T11:57:49.859Z,24.87
2018-12-20T12:02:51.536Z,20.10
2018-12-20T12:07:53.311Z,19.17
2018-12-20T12:12:54.973Z,18.73
2018-12-20T12:17:56.657Z,16.67
2018-12-20T12:22:58.934Z,23.70
2018-12-20T12:28:00.827Z,24.20
2018-12-20T12:33:02.907Z,23.87
2018-12-20T12:38:04.988Z,30.80
2018-12-20T12:43:06.622Z,25.40
2018-12-20T12:48:08.336Z,23.90
2018-12-20T12:53:10.419Z,21.97
2018-12-20T12:58:12.094Z,22.33
2018-12-20T13:03:14.685Z,22.03
2018-12-20T13:08:16.356Z,33.60
2018-12-20T13:13:18.032Z,24.50
2018-12-20T13:18:20.099Z,27.43
2018-12-20T13:23:23.230Z,27.07
2018-12-20T13:28:25.296Z,26.20
2018-12-20T13:33:26.950Z,33.53
2018-12-20T13:38:28.567Z,24.30
2018-12-20T13:43:30.743Z,21.13
2018-12-20T13:48:32.430Z,22.13
2018-12-20T13:53:34.074Z,24.07
2018-12-20T13:58:37.678Z,25.80
2018-12-20T14:03:39.947Z,23.40
2018-12-20T14:08:42.184Z,27.33
2018-12-20T14:13:44.062Z,22.67
2018-12-20T14:18:45.794Z,27.70
2018-12-20T14:23:47.613Z,23.43
2018-12-20T14:28:49.272Z,28.40
2018-12-20T14:33:51.370Z,22.13
2018-12-20T14:38:53.315Z,27.43
2018-12-20T14:49:05.397Z,21.53
2018-12-20T14:54:07.482Z,22.10
2018-12-20T14:59:10.889Z,25.87
2018-12-20T15:04:12.883Z,21.70
2018-12-20T15:09:14.850Z,24.03
2018-12-20T15:14:17.033Z,25.57
2018-12-20T15:19:19.215Z,29.27
2018-12-20T15:24:21.146Z,26.57
2018-12-20T15:29:22.832Z,25.23
2018-12-20T15:34:24.649Z,23.20
2018-12-20T15:39:26.610Z,18.83
2018-12-20T15:44:28.306Z,21.53
2018-12-20T15:49:30.181Z,24.27
2018-12-20T15:54:31.960Z,25.43
2018-12-20T15:59:33.833Z,30.87
2018-12-20T16:04:36.324Z,23.97
2018-12-20T16:09:38.774Z,25.87
2018-12-20T16:14:40.427Z,27.43
2018-12-20T16:19:42.774Z,26.73
2018-12-20T16:24:44.859Z,26.13
2018-12-20T16:29:53.909Z,26.80
2018-12-20T16:34:56.190Z,23.63
2018-12-20T16:39:58.170Z,27.53
2018-12-20T16:44:59.816Z,23.73
2018-12-20T16:50:02.237Z,24.37
2018-12-20T16:55:06.162Z,24.63
2018-12-20T17:00:12.752Z,27.00
2018-12-20T17:05:14.835Z,26.43
2018-12-20T17:10:16.778Z,25.33
2018-12-20T17:15:18.434Z,28.60
2018-12-20T17:20:20.470Z,30.80
2018-12-20T17:25:22.448Z,27.63
2018-12-20T17:30:24.155Z,23.63
2018-12-20T17:35:25.852Z,29.57
2018-12-20T17:40:28.858Z,25.37
2018-12-20T17:45:30.871Z,24.50
2018-12-20T17:50:32.547Z,26.40
2018-12-20T17:55:34.454Z,27.40
2018-12-20T18:00:36.310Z,26.70
2018-12-20T18:05:38.188Z,23.13
2018-12-20T18:10:43.644Z,24.77
2018-12-20T18:15:45.838Z,37.07
2018-12-20T18:20:48.167Z,24.57
2018-12-20T18:25:50.205Z,30.50
2018-12-20T18:30:52.087Z,24.97
2018-12-20T18:35:54.173Z,31.23
2018-12-20T18:40:55.899Z,35.83
2018-12-20T18:45:58.344Z,31.50
2018-12-20T18:51:00.025Z,27.13
2018-12-20T18:56:01.898Z,25.87
2018-12-20T19:01:03.781Z,29.30
2018-12-20T19:06:07.061Z,23.27
2018-12-20T19:11:09.175Z,23.67
2018-12-20T19:16:11.460Z,29.47
2018-12-20T19:21:13.542Z,24.23
2018-12-20T19:26:15.212Z,26.63
2018-12-20T19:31:17.299Z,24.03
2018-12-20T19:36:19.586Z,25.93
2018-12-20T19:41:31.078Z,20.67
2018-12-20T19:46:33.586Z,21.53
2018-12-20T19:51:36.434Z,30.27
2018-12-20T19:56:38.085Z,29.40
2018-12-20T20:01:39.950Z,25.83
2018-12-20T20:06:41.890Z,27.40
2018-12-20T20:11:43.928Z,26.93
2018-12-20T20:16:50.767Z,26.93
2018-12-20T20:21:50.525Z,27.17
2018-12-20T20:26:52.607Z,29.37
2018-12-20T20:31:55.511Z,26.20
2018-12-20T20:36:58.003Z,28.93
2018-12-20T20:41:59.905Z,24.77
2018-12-20T20:47:02.372Z,24.03
2018-12-20T20:52:04.455Z,26.27
2018-12-20T20:57:06.536Z,26.17
2018-12-20T21:02:08.620Z,30.50
2018-12-20T21:07:10.487Z,31.47
2018-12-20T21:12:12.170Z,28.10
2018-12-20T21:17:14.458Z,25.50
2018-12-20T21:22:16.318Z,23.97
2018-12-20T21:27:20.670Z,24.10
2018-12-20T21:32:22.327Z,28.93
2018-12-20T21:37:24.227Z,26.87
2018-12-20T21:42:26.311Z,26.80
2018-12-20T21:47:28.400Z,28.87
2018-12-20T21:52:30.079Z,23.07
2018-12-20T21:57:33.794Z,23.70
2018-12-20T22:02:35.879Z,25.83
2018-12-20T22:07:37.961Z,29.93
2018-12-20T22:12:40.040Z,23.40
2018-12-20T22:17:42.327Z,26.70
2018-12-20T22:22:45.037Z,25.67
2018-12-20T22:27:46.916Z,25.17
2018-12-20T22:32:48.799Z,26.43
2018-12-20T22:37:50.674Z,28.60
2018-12-20T22:42:52.348Z,26.10
2018-12-20T22:47:54.638Z,24.40
2018-12-20T22:52:56.516Z,23.03
2018-12-20T22:57:58.805Z,27.97
2018-12-20T23:03:00.675Z,27.87
2018-12-20T23:08:02.358Z,21.50
2018-12-20T23:13:04.029Z,21.20
2018-12-20T23:18:05.907Z,27.87
2018-12-20T23:23:07.766Z,25.70
2018-12-20T23:28:09.453Z,24.53
2018-12-20T23:33:11.346Z,23.37
2018-12-20T23:38:13.417Z,24.57
2018-12-20T23:43:15.890Z,25.87
2018-12-20T23:48:17.789Z,24.20
2018-12-20T23:53:19.871Z,24.60
2018-12-20T23:58:21.748Z,26.90
